Dunkirk, United Kingdom
Current Conditions -  °F | °C
As of 11:50 PM on Sunday 23 Nov 2014 (Local Time) from EGMC Reporting Station
Clear Clear  
Wind Chill:   Ceiling: Unl
Heat Index:   Visibility: 6mi
Dew Point:   Wind: 6mph
Humidity: 93%   Direction: 300°WNW
Pressure: 30.15"   Gusts: NA
Location:  51.29°N, 0.98°E
Report Text: EGMC 232350Z 30005KT CAVOK 05/04 Q1021
Loading
Personal Weather Stations






























Interactive Weather Map New forecast layout! Learn more

10-Day Weather Forecast

Advertisements
Track Severe Weather on mobile